Portada
METAR-TAF:

METAR-TAF

Aeroports :

Pau, França

latitud: 43-23N, longitud: 000-25W, altitud: 188 m

Observació

L'informe es va fer fa 37 minuts, a les 02:30 UTC
Vent 3 kt del Sud-Oest
Temperatura 13°C
Humitat 94%
Pressió 1018 hPa
Visibilitat 10 km o més
Escasses núvols a una alçada de 1300 ft
Cel ennuvolat a una alçada de 1900 ft
Cel cobert a una alçada de 3400 ft
pluja

METAR: LFBP 070230Z AUTO 22003KT 9999 -RA FEW013 BKN019 OVC034 13/12 Q1018 TEMPO 4000 -RA OVC014

Hora: 05:07 (03:07 UTC)

Pronòstic

L'informe es va fer fa 4 hores i 7 minuts, a les 23:00 UTC
Pronòstic vàlid del 07 a les 00 UTC al 07 a les 24 UTC
Vent 8 kt del Oest/Sud-Oest
Visibilitat 10 km o més
Cel ennuvolat a una alçada de 3000 ft
Probabilitat 40% :
Temporalment
l' 07 a les 00 UTC al 07 a les 08 UTC
Visibilitat: 4000 m
Cel cobert a una alçada de 1400 ft
pluja

TAF: LFBP 062300Z 0700/0724 24008KT 9999 BKN030 PROB40 TEMPO 0700/0708 4000 -RA OVC014

Observacions i pronòstics meteorològics de més de 4000 aeroports (METAR i TAF).

Les estacions disponibles són els punts grocs i vermells al mapa.

Posi el ratolí al punt desitjat per veure el nom de l'estació.

Feu clic per veure les observacions i els pronòstics meteorològics.

Per canviar el mapa: feu clic els botons verds amb una creu de color negre per apropar; al botó verd amb un guió per allunyar la imatge; o en les fletxes verdes per a mapes adjacents.


METAR-TAF: